createdAt,value
2019-03-20T00:02:17.524Z,67.62
2019-03-20T00:04:49.873Z,67.74
2019-03-20T00:07:20.534Z,67.81
2019-03-20T00:09:51.356Z,67.81
2019-03-20T00:12:22.822Z,67.92
2019-03-20T00:14:53.640Z,67.80
2019-03-20T00:17:24.372Z,67.84
2019-03-20T00:19:56.167Z,67.79
2019-03-20T00:22:26.761Z,68.15
2019-03-20T00:24:57.284Z,68.55
2019-03-20T00:27:29.551Z,68.94
2019-03-20T00:30:01.831Z,69.48
2019-03-20T00:32:32.144Z,69.53
2019-03-20T00:35:03.628Z,69.89
2019-03-20T00:37:33.917Z,70.55
2019-03-20T00:40:07.078Z,71.19
2019-03-20T00:42:37.329Z,71.56
2019-03-20T00:45:10.578Z,71.83
2019-03-20T00:47:40.950Z,72.06
2019-03-20T00:50:15.602Z,72.23
2019-03-20T00:52:46.300Z,72.49
2019-03-20T00:55:17.588Z,72.69
2019-03-20T00:57:48.481Z,73.00
2019-03-20T01:00:25.527Z,73.44
2019-03-20T01:02:56.190Z,73.59
2019-03-20T01:05:27.033Z,74.33
2019-03-20T01:07:59.287Z,74.38
2019-03-20T01:10:29.957Z,74.28
2019-03-20T01:13:00.437Z,74.43
2019-03-20T01:15:31.803Z,74.61
2019-03-20T01:20:42.177Z,74.72
2019-03-20T01:23:13.418Z,74.41
2019-03-20T01:25:43.741Z,74.54
2019-03-20T01:28:14.471Z,75.18
2019-03-20T01:30:45.112Z,75.39
2019-03-20T01:33:15.576Z,75.47
2019-03-20T01:35:47.861Z,76.06
2019-03-20T01:38:18.193Z,76.72
2019-03-20T01:40:49.750Z,77.06
2019-03-20T01:43:22.147Z,77.43
2019-03-20T01:45:53.090Z,77.58
2019-03-20T01:48:23.820Z,77.73
2019-03-20T01:50:57.107Z,78.07
2019-03-20T01:53:29.278Z,78.16
2019-03-20T01:56:01.599Z,78.31
2019-03-20T01:58:32.894Z,78.58
2019-03-20T02:01:03.313Z,78.91
2019-03-20T02:03:33.950Z,79.16
2019-03-20T02:06:04.475Z,79.35
2019-03-20T02:08:35.203Z,79.26
2019-03-20T02:11:05.834Z,78.92
2019-03-20T02:13:36.771Z,78.90
2019-03-20T02:16:07.404Z,79.30
2019-03-20T02:18:40.160Z,79.83
2019-03-20T02:21:10.716Z,79.82
2019-03-20T02:23:41.342Z,79.70
2019-03-20T02:26:12.076Z,79.78
2019-03-20T02:28:44.656Z,80.05
2019-03-20T02:31:15.380Z,80.00
2019-03-20T02:33:46.119Z,79.63
2019-03-20T02:36:16.851Z,79.56
2019-03-20T02:38:47.579Z,79.83
2019-03-20T02:41:18.316Z,79.99
2019-03-20T02:43:51.403Z,79.72
2019-03-20T02:46:22.649Z,79.25
2019-03-20T02:48:55.094Z,79.69
2019-03-20T02:51:26.374Z,79.90
2019-03-20T02:53:56.954Z,80.25
2019-03-20T02:56:29.261Z,79.84
2019-03-20T02:58:59.802Z,79.74
2019-03-20T03:01:30.534Z,79.95
2019-03-20T03:04:01.049Z,80.24
2019-03-20T03:06:31.682Z,80.41
2019-03-20T03:09:02.419Z,80.37
2019-03-20T03:11:33.046Z,80.26
2019-03-20T03:14:03.988Z,80.18
2019-03-20T03:16:37.194Z,80.29
2019-03-20T03:19:09.033Z,79.95
2019-03-20T03:21:39.631Z,80.12
2019-03-20T03:24:10.286Z,80.34
2019-03-20T03:26:41.127Z,80.42
2019-03-20T03:29:12.195Z,80.31
2019-03-20T03:31:43.511Z,80.06
2019-03-20T03:34:15.037Z,80.02
2019-03-20T03:36:46.943Z,79.71
2019-03-20T03:39:17.246Z,79.16
2019-03-20T03:41:47.923Z,79.24
2019-03-20T03:44:18.465Z,79.57
2019-03-20T03:46:49.339Z,79.73
2019-03-20T03:49:20.063Z,79.91
2019-03-20T03:51:51.220Z,79.94
2019-03-20T03:54:21.637Z,79.85
2019-03-20T03:56:54.712Z,79.71
2019-03-20T03:59:25.516Z,79.90
2019-03-20T04:01:56.301Z,79.95
2019-03-20T04:04:27.849Z,80.26
2019-03-20T04:06:58.208Z,80.05
2019-03-20T04:09:28.908Z,79.78
2019-03-20T04:12:01.373Z,79.48
2019-03-20T04:14:31.942Z,79.31
2019-03-20T04:17:02.593Z,79.14
2019-03-20T04:19:36.875Z,78.66
2019-03-20T04:22:07.381Z,78.57
2019-03-20T04:24:38.012Z,78.10
2019-03-20T04:27:08.946Z,78.12
2019-03-20T04:29:39.594Z,77.75
2019-03-20T04:32:10.412Z,78.27
2019-03-20T04:34:41.463Z,78.07
2019-03-20T04:37:13.802Z,78.38
2019-03-20T04:39:44.353Z,78.60
2019-03-20T04:42:15.035Z,78.29
2019-03-20T04:44:46.532Z,77.97
2019-03-20T04:47:17.365Z,78.18
2019-03-20T04:49:50.729Z,77.90
2019-03-20T04:52:21.902Z,78.19
2019-03-20T04:54:53.660Z,77.82
2019-03-20T04:57:26.132Z,77.87
2019-03-20T04:59:57.477Z,77.64
2019-03-20T05:02:28.109Z,77.31
2019-03-20T05:04:59.455Z,77.48
2019-03-20T05:07:30.406Z,77.57
2019-03-20T05:10:01.026Z,78.69
2019-03-20T05:12:31.757Z,78.29
2019-03-20T05:15:02.695Z,78.08
2019-03-20T05:17:33.536Z,78.32
2019-03-20T05:20:06.166Z,78.29
2019-03-20T05:22:36.634Z,79.28
2019-03-20T05:25:07.478Z,78.84
2019-03-20T05:27:38.715Z,78.16
2019-03-20T05:30:12.150Z,77.49
2019-03-20T05:32:43.359Z,77.53
2019-03-20T05:35:13.980Z,77.81
2019-03-20T05:37:44.611Z,77.43
2019-03-20T05:40:19.232Z,77.46
2019-03-20T05:42:50.777Z,77.58
2019-03-20T05:45:21.578Z,76.59
2019-03-20T05:47:55.020Z,76.66
2019-03-20T05:50:25.440Z,76.35
2019-03-20T05:52:56.004Z,76.13
2019-03-20T05:55:26.600Z,75.67
2019-03-20T05:57:57.354Z,75.74
2019-03-20T06:00:29.702Z,75.96
2019-03-20T06:03:00.249Z,75.24
2019-03-20T06:05:30.861Z,75.06
2019-03-20T06:08:01.489Z,75.21
2019-03-20T06:10:32.207Z,74.81
2019-03-20T06:13:02.852Z,74.90
2019-03-20T06:15:34.043Z,74.36
2019-03-20T06:18:04.827Z,73.74
2019-03-20T06:20:35.363Z,74.13
2019-03-20T06:23:06.603Z,73.80
2019-03-20T06:25:36.924Z,74.99
2019-03-20T06:28:08.273Z,73.35
2019-03-20T06:30:39.640Z,71.97
2019-03-20T06:33:11.378Z,71.13
2019-03-20T06:35:43.134Z,70.71
2019-03-20T06:38:14.273Z,69.84
2019-03-20T06:40:45.123Z,69.55
2019-03-20T06:43:15.814Z,70.27
2019-03-20T06:45:47.088Z,69.77
2019-03-20T06:48:17.419Z,69.35
2019-03-20T06:50:48.275Z,70.19
2019-03-20T06:53:18.992Z,70.74
2019-03-20T06:55:49.811Z,71.75
2019-03-20T06:58:20.894Z,72.00
2019-03-20T07:01:03.773Z,71.64
2019-03-20T07:03:40.543Z,71.50
2019-03-20T07:06:23.672Z,71.24
2019-03-20T07:09:04.872Z,71.25
2019-03-20T07:11:39.475Z,71.58
2019-03-20T07:14:09.823Z,70.60
2019-03-20T07:16:40.522Z,70.57
2019-03-20T07:19:11.255Z,70.11
2019-03-20T07:21:41.694Z,69.78
2019-03-20T07:24:15.197Z,69.24
2019-03-20T07:26:45.712Z,68.81
2019-03-20T07:29:16.955Z,68.20
2019-03-20T07:31:49.216Z,67.60
2019-03-20T07:34:21.769Z,68.16
2019-03-20T07:36:53.044Z,68.04
2019-03-20T07:39:23.671Z,68.17
2019-03-20T07:41:54.834Z,66.93
2019-03-20T07:44:25.248Z,65.21
2019-03-20T07:46:58.147Z,64.00
2019-03-20T07:49:31.298Z,63.34
2019-03-20T07:52:02.545Z,62.69
2019-03-20T07:54:33.295Z,61.88
2019-03-20T07:57:04.022Z,60.97
2019-03-20T07:59:36.089Z,60.84
2019-03-20T08:02:06.600Z,60.11
2019-03-20T08:04:37.936Z,59.17
2019-03-20T08:07:10.205Z,58.21
2019-03-20T08:09:40.630Z,59.32
2019-03-20T08:12:12.915Z,57.91
2019-03-20T08:14:45.026Z,57.35
2019-03-20T08:17:15.826Z,55.91
2019-03-20T08:19:46.909Z,55.59
2019-03-20T08:22:18.112Z,54.20
2019-03-20T08:24:48.839Z,53.10
2019-03-20T08:27:19.778Z,51.99
2019-03-20T08:29:50.610Z,51.26
2019-03-20T08:32:21.445Z,50.71
2019-03-20T08:34:52.191Z,50.41
2019-03-20T08:37:23.424Z,50.32
2019-03-20T08:39:53.756Z,49.66
2019-03-20T08:42:24.555Z,49.63
2019-03-20T08:44:58.061Z,49.26
2019-03-20T08:47:28.733Z,49.24
2019-03-20T08:50:00.338Z,48.23
2019-03-20T08:52:30.792Z,50.64
2019-03-20T08:55:01.429Z,50.07
2019-03-20T08:57:32.665Z,47.96
2019-03-20T09:00:02.878Z,48.19
2019-03-20T09:02:34.121Z,46.86
2019-03-20T09:05:08.314Z,45.96
2019-03-20T09:07:47.167Z,46.55
2019-03-20T09:10:18.381Z,45.07
2019-03-20T09:12:50.799Z,45.07
2019-03-20T09:15:21.590Z,44.32
2019-03-20T09:17:53.498Z,42.83
2019-03-20T09:20:25.123Z,44.22
2019-03-20T09:22:55.862Z,43.39
2019-03-20T09:25:30.119Z,42.53
2019-03-20T09:28:00.609Z,42.18
2019-03-20T09:30:33.279Z,42.71
2019-03-20T09:33:03.646Z,42.17
2019-03-20T09:35:34.964Z,41.62
2019-03-20T09:38:05.479Z,42.32
2019-03-20T09:40:39.169Z,40.48
2019-03-20T09:43:11.156Z,40.45
2019-03-20T09:45:43.211Z,39.46
2019-03-20T09:48:14.052Z,39.60
2019-03-20T09:50:44.776Z,41.72
2019-03-20T09:53:15.507Z,39.94
2019-03-20T09:55:48.187Z,40.65
2019-03-20T09:58:19.941Z,39.30
2019-03-20T10:00:50.776Z,37.65
2019-03-20T10:03:21.923Z,37.33
2019-03-20T10:05:56.442Z,36.39
2019-03-20T10:08:27.273Z,35.01
2019-03-20T10:10:58.216Z,35.49
2019-03-20T10:13:29.969Z,34.87
2019-03-20T10:16:00.611Z,32.33
2019-03-20T10:18:31.515Z,33.74
2019-03-20T10:21:02.273Z,33.80
2019-03-20T10:23:33.008Z,34.88
2019-03-20T10:26:03.899Z,34.53
2019-03-20T10:28:34.682Z,34.83
2019-03-20T10:31:05.608Z,34.95
2019-03-20T10:33:36.363Z,33.76
2019-03-20T10:36:06.972Z,35.08
2019-03-20T10:38:38.671Z,34.92
2019-03-20T10:41:10.686Z,31.82
2019-03-20T10:43:42.140Z,30.65
2019-03-20T10:46:13.597Z,29.87
2019-03-20T10:48:44.735Z,29.66
2019-03-20T10:51:15.160Z,30.17
2019-03-20T10:53:47.538Z,28.59
2019-03-20T10:56:18.161Z,27.82
2019-03-20T10:58:48.813Z,28.97
2019-03-20T11:01:19.423Z,27.80
2019-03-20T11:03:51.084Z,28.04
2019-03-20T11:06:22.527Z,27.19
2019-03-20T11:08:52.878Z,26.89
2019-03-20T11:11:27.316Z,26.45
2019-03-20T11:13:56.360Z,26.15
2019-03-20T11:16:27.109Z,25.94
2019-03-20T11:18:58.728Z,25.99
2019-03-20T11:21:29.280Z,25.26
2019-03-20T11:24:04.314Z,24.79
2019-03-20T11:26:35.661Z,24.70
2019-03-20T11:29:06.194Z,24.65
2019-03-20T11:31:37.775Z,24.37
2019-03-20T11:34:09.700Z,24.95
2019-03-20T11:36:40.231Z,24.13
2019-03-20T11:39:12.287Z,23.73
2019-03-20T11:41:43.046Z,23.70
2019-03-20T11:44:13.755Z,23.64
2019-03-20T11:46:45.738Z,23.73
2019-03-20T11:49:16.993Z,23.59
2019-03-20T11:51:49.026Z,24.01
2019-03-20T11:54:19.653Z,23.89
2019-03-20T11:56:50.285Z,23.91
2019-03-20T11:59:21.839Z,24.28
2019-03-20T12:01:54.206Z,23.25
2019-03-20T12:04:24.939Z,23.76
2019-03-20T12:06:55.455Z,23.50
2019-03-20T12:09:26.639Z,23.08
2019-03-20T12:11:57.447Z,23.67
2019-03-20T12:14:29.004Z,22.87
2019-03-20T12:16:59.934Z,23.11
2019-03-20T12:19:31.184Z,23.49
2019-03-20T12:22:01.510Z,23.53
2019-03-20T12:24:32.262Z,24.25
2019-03-20T12:27:14.184Z,23.16
2019-03-20T12:29:36.568Z,24.27
2019-03-20T12:32:08.526Z,24.25
2019-03-20T12:34:39.262Z,23.21
2019-03-20T12:37:10.742Z,23.49
2019-03-20T12:39:52.641Z,24.28
2019-03-20T12:42:13.627Z,24.14
2019-03-20T12:44:44.345Z,23.08
2019-03-20T12:47:16.711Z,22.59
2019-03-20T12:49:48.113Z,23.45
2019-03-20T12:52:19.709Z,24.52
2019-03-20T12:54:50.035Z,25.07
2019-03-20T12:57:21.098Z,25.02
2019-03-20T12:59:51.410Z,24.17
2019-03-20T13:02:21.933Z,24.13
2019-03-20T13:04:53.481Z,23.69
2019-03-20T13:07:24.210Z,23.80
2019-03-20T13:10:03.169Z,23.27
2019-03-20T13:12:28.750Z,22.70
2019-03-20T13:14:59.378Z,23.69
2019-03-20T13:17:30.126Z,23.60
2019-03-20T13:20:00.844Z,23.67
2019-03-20T13:22:31.427Z,24.99
2019-03-20T13:25:03.630Z,24.53
2019-03-20T13:27:34.087Z,24.43
2019-03-20T13:30:20.409Z,24.72
2019-03-20T13:32:51.213Z,25.13
2019-03-20T13:35:24.283Z,25.80
2019-03-20T13:37:55.018Z,25.36
2019-03-20T13:40:26.567Z,25.35
2019-03-20T13:42:57.233Z,25.80
2019-03-20T13:45:28.854Z,25.79
2019-03-20T13:48:01.739Z,25.10
2019-03-20T13:50:32.883Z,25.44
2019-03-20T13:53:04.434Z,26.19
2019-03-20T13:55:35.375Z,26.04
2019-03-20T13:58:06.207Z,26.38
2019-03-20T14:00:37.147Z,26.86
2019-03-20T14:03:07.787Z,26.10
2019-03-20T14:05:40.758Z,26.35
2019-03-20T14:08:11.395Z,26.57
2019-03-20T14:10:50.202Z,26.41
2019-03-20T14:13:16.038Z,26.91
2019-03-20T14:15:47.541Z,27.18
2019-03-20T14:18:18.425Z,28.29
2019-03-20T14:20:49.147Z,27.35
2019-03-20T14:23:19.986Z,27.57
2019-03-20T14:25:50.792Z,27.25
2019-03-20T14:28:21.672Z,27.83
2019-03-20T14:30:53.539Z,27.64
2019-03-20T14:33:23.844Z,28.67
2019-03-20T14:35:54.626Z,28.40
2019-03-20T14:38:27.038Z,29.88
2019-03-20T14:40:58.133Z,32.07
2019-03-20T14:43:29.118Z,32.20
2019-03-20T14:45:59.753Z,31.63
2019-03-20T14:48:30.388Z,30.61
2019-03-20T14:51:01.117Z,31.30
2019-03-20T14:53:31.916Z,31.32
2019-03-20T14:56:02.681Z,32.94
2019-03-20T14:58:38.137Z,32.82
2019-03-20T15:01:08.970Z,33.28
2019-03-20T15:03:39.372Z,33.84
2019-03-20T15:06:10.010Z,36.28
2019-03-20T15:08:41.804Z,36.94
2019-03-20T15:11:13.344Z,37.28
2019-03-20T15:13:45.692Z,38.03
2019-03-20T15:16:17.448Z,37.61
2019-03-20T15:18:49.036Z,38.29
2019-03-20T15:21:19.496Z,39.91
2019-03-20T15:23:49.971Z,43.01
2019-03-20T15:26:20.798Z,45.74
2019-03-20T15:28:51.823Z,47.14
2019-03-20T15:31:23.982Z,47.63
2019-03-20T15:33:54.827Z,48.23
2019-03-20T15:36:25.464Z,49.14
2019-03-20T15:38:56.207Z,49.89
2019-03-20T15:41:26.937Z,50.34
2019-03-20T15:44:02.703Z,51.03
2019-03-20T15:46:31.376Z,51.80
2019-03-20T15:49:02.703Z,52.83
2019-03-20T15:51:33.235Z,53.41
2019-03-20T15:54:05.172Z,54.12
2019-03-20T15:56:36.139Z,55.57
2019-03-20T15:59:06.876Z,57.47
2019-03-20T16:01:37.494Z,58.13
2019-03-20T16:04:08.045Z,58.63
2019-03-20T16:06:38.651Z,59.09
2019-03-20T16:09:09.867Z,59.16
2019-03-20T16:11:40.632Z,59.40
2019-03-20T16:14:11.261Z,59.26
2019-03-20T16:16:43.434Z,59.65
2019-03-20T16:19:14.262Z,59.57
2019-03-20T16:21:45.205Z,60.00
2019-03-20T16:24:16.645Z,60.14
2019-03-20T16:26:47.892Z,60.32
2019-03-20T16:29:20.512Z,60.51
2019-03-20T16:31:51.306Z,60.61
2019-03-20T16:34:22.379Z,60.97
2019-03-20T16:36:53.217Z,61.05
2019-03-20T16:39:24.730Z,60.92
2019-03-20T16:41:55.473Z,61.61
2019-03-20T16:44:26.193Z,62.32
2019-03-20T16:46:58.773Z,62.24
2019-03-20T16:49:29.396Z,62.09
2019-03-20T16:52:01.360Z,62.42
2019-03-20T16:54:32.194Z,62.68
2019-03-20T16:57:02.724Z,62.95
2019-03-20T16:59:33.355Z,62.97
2019-03-20T17:02:04.815Z,62.88
2019-03-20T17:04:36.353Z,63.22
2019-03-20T17:07:07.596Z,63.27
2019-03-20T17:09:38.447Z,63.61
2019-03-20T17:12:11.085Z,63.95
2019-03-20T17:14:42.994Z,64.39
2019-03-20T17:17:14.211Z,64.85
2019-03-20T17:19:44.973Z,64.93
2019-03-20T17:22:16.279Z,65.40
2019-03-20T17:24:47.624Z,65.96
2019-03-20T17:27:18.168Z,66.24
2019-03-20T17:29:49.004Z,66.64
2019-03-20T17:32:20.246Z,66.72
2019-03-20T17:34:51.390Z,67.02
2019-03-20T17:37:22.693Z,67.00
2019-03-20T17:39:53.373Z,66.62
2019-03-20T17:42:25.530Z,66.31
2019-03-20T17:44:57.699Z,66.72
2019-03-20T17:47:27.978Z,66.45
2019-03-20T17:49:58.548Z,66.47
2019-03-20T17:52:29.280Z,66.25
2019-03-20T17:55:01.564Z,66.35
2019-03-20T17:57:31.977Z,66.38
2019-03-20T18:00:02.916Z,66.88
2019-03-20T18:02:33.647Z,66.99
2019-03-20T18:05:05.976Z,66.96
2019-03-20T18:07:36.657Z,67.41
2019-03-20T18:10:07.389Z,67.62
2019-03-20T18:12:38.108Z,67.87
2019-03-20T18:15:11.914Z,67.97
2019-03-20T18:17:42.184Z,67.81
2019-03-20T18:20:20.038Z,68.44
2019-03-20T18:22:51.196Z,68.48
2019-03-20T18:25:21.501Z,69.10
2019-03-20T18:27:53.770Z,69.30
2019-03-20T18:30:25.429Z,69.36
2019-03-20T18:32:55.851Z,69.41
2019-03-20T18:35:26.683Z,69.45
2019-03-20T18:37:57.528Z,69.49
2019-03-20T18:40:28.561Z,69.73
2019-03-20T18:43:00.111Z,70.06
2019-03-20T18:45:30.741Z,70.27
2019-03-20T18:48:01.271Z,70.38
2019-03-20T18:50:31.591Z,70.56
2019-03-20T18:53:02.220Z,70.43
2019-03-20T18:55:32.856Z,70.63
2019-03-20T18:58:03.864Z,70.72
2019-03-20T19:00:35.442Z,70.73
2019-03-20T19:03:23.574Z,70.75
2019-03-20T19:05:57.188Z,70.70
2019-03-20T19:08:28.327Z,70.64
2019-03-20T19:10:59.990Z,70.83
2019-03-20T19:13:31.315Z,70.80
2019-03-20T19:16:01.856Z,70.86
2019-03-20T19:18:32.499Z,70.76
2019-03-20T19:21:03.218Z,70.93
2019-03-20T19:23:34.060Z,71.00
2019-03-20T19:26:05.503Z,71.18
2019-03-20T19:28:36.441Z,71.12
2019-03-20T19:31:06.735Z,71.35
2019-03-20T19:33:37.287Z,71.39
2019-03-20T19:36:08.930Z,71.56
2019-03-20T19:38:39.264Z,71.65
2019-03-20T19:41:09.891Z,71.75
2019-03-20T19:43:40.730Z,71.77
2019-03-20T19:46:11.460Z,71.69
2019-03-20T19:48:42.099Z,71.42
2019-03-20T19:51:13.044Z,71.67
2019-03-20T19:53:43.624Z,71.82
2019-03-20T19:56:14.494Z,71.70
2019-03-20T19:58:45.330Z,71.57
2019-03-20T20:01:16.453Z,71.54
2019-03-20T20:03:47.201Z,71.37
2019-03-20T20:06:18.653Z,71.46
2019-03-20T20:08:49.118Z,71.12
2019-03-20T20:11:19.755Z,71.28
2019-03-20T20:13:50.302Z,71.24
2019-03-20T20:16:21.175Z,71.31
2019-03-20T20:18:51.908Z,71.17
2019-03-20T20:21:23.724Z,71.22
2019-03-20T20:23:54.397Z,70.81
2019-03-20T20:26:26.663Z,70.96
2019-03-20T20:28:56.972Z,70.76
2019-03-20T20:31:27.822Z,71.15
2019-03-20T20:33:58.250Z,71.06
2019-03-20T20:36:28.928Z,70.83
2019-03-20T20:38:59.511Z,70.85
2019-03-20T20:41:30.681Z,70.83
2019-03-20T20:44:01.278Z,70.88
2019-03-20T20:46:31.951Z,70.81
2019-03-20T20:49:02.847Z,70.51
2019-03-20T20:51:33.578Z,70.67
2019-03-20T20:54:04.527Z,70.79
2019-03-20T20:56:35.153Z,70.91
2019-03-20T20:59:06.287Z,70.87
2019-03-20T21:01:37.637Z,70.65
2019-03-20T21:04:08.981Z,70.48
2019-03-20T21:06:40.944Z,70.66
2019-03-20T21:09:13.829Z,70.92
2019-03-20T21:11:45.276Z,70.99
2019-03-20T21:14:15.598Z,70.86
2019-03-20T21:16:46.331Z,70.78
2019-03-20T21:19:33.695Z,70.89
2019-03-20T21:22:22.169Z,70.81
2019-03-20T21:24:53.346Z,70.81
2019-03-20T21:28:01.071Z,70.70
2019-03-20T21:30:48.813Z,70.93
2019-03-20T21:33:55.865Z,71.26
2019-03-20T21:36:44.030Z,71.24
2019-03-20T21:39:15.447Z,71.32
2019-03-20T21:41:58.264Z,71.41
2019-03-20T21:44:50.296Z,71.69
2019-03-20T21:47:35.931Z,71.67
2019-03-20T21:50:21.214Z,71.50
2019-03-20T21:52:52.393Z,71.58
2019-03-20T21:55:42.482Z,71.78
2019-03-20T21:58:19.153Z,71.94
2019-03-20T22:01:11.388Z,71.95
2019-03-20T22:03:44.007Z,72.20
2019-03-20T22:06:40.294Z,72.31
2019-03-20T22:09:13.045Z,72.39
2019-03-20T22:12:06.337Z,72.59
2019-03-20T22:14:37.070Z,72.68
2019-03-20T22:17:34.325Z,72.73
2019-03-20T22:20:26.150Z,72.87
2019-03-20T22:22:59.957Z,72.86
2019-03-20T22:25:55.875Z,72.72
2019-03-20T22:29:01.662Z,72.98
2019-03-20T22:31:35.624Z,73.28
2019-03-20T22:34:25.878Z,73.24
2019-03-20T22:36:56.972Z,73.42
2019-03-20T22:40:02.459Z,73.35
2019-03-20T22:42:45.027Z,73.63
2019-03-20T22:45:30.914Z,73.80
2019-03-20T22:48:10.892Z,73.75
2019-03-20T22:50:46.205Z,74.06
2019-03-20T22:53:25.233Z,74.09
2019-03-20T22:56:18.597Z,74.45
2019-03-20T22:58:49.685Z,74.43
2019-03-20T23:01:25.796Z,74.53
2019-03-20T23:03:59.709Z,74.53
2019-03-20T23:06:31.368Z,74.75
2019-03-20T23:09:01.677Z,74.77
2019-03-20T23:11:32.511Z,74.92
2019-03-20T23:14:03.040Z,74.90
2019-03-20T23:16:33.775Z,74.76
2019-03-20T23:19:04.504Z,74.86
2019-03-20T23:21:34.960Z,74.93
2019-03-20T23:24:05.561Z,75.18
2019-03-20T23:26:36.297Z,75.26
2019-03-20T23:29:06.725Z,75.22
2019-03-20T23:31:37.248Z,75.22
2019-03-20T23:34:08.699Z,75.40
2019-03-20T23:36:39.537Z,75.09
2019-03-20T23:39:10.155Z,75.34
2019-03-20T23:41:42.390Z,75.30
2019-03-20T23:44:13.156Z,75.58
2019-03-20T23:46:43.994Z,75.64
2019-03-20T23:49:20.462Z,75.50
2019-03-20T23:51:50.886Z,75.58
2019-03-20T23:54:24.913Z,75.55
2019-03-20T23:56:56.192Z,75.72
2019-03-20T23:59:27.005Z,75.90
